الصفحة الرئيسية
METAR-TAF:

METAR-TAF

مطار :

Phrae, تايلاند

دائرة عرض: 18-10N, خط طول: 100-10E, ارتفاع: 161 متر

مراقبة الطقس الحالي

تاريخ ووقت الإصدار 11ساعات و 58 دقيقة قبل الساعة 11:00UTC
ريح 9 عقدة من الجنوب/الجنوب الغربي, الاتجاه يتراوح بين الجنوب و الغرب/الجنوب الغربي
درجة الحرارة 26°درجة مئوية
الرطوبة 94%
ضغط 1002 hPa
الرؤية: 9000 متر
غيوم قليلة على ارتفاع 3100 قدم
غيوم مفككة على ارتفاع 5700 قدم
مطر خفيف

METAR: VTCP 251100Z 21009KT 180V240 9000 -RA FEW031 BKN057 26/25 Q1002 NOSIG

زمن: 05:58 (22:58 UTC)

توقعات

تاريخ ووقت الإصدار 5ساعات و 58 دقيقة قبل الساعة 17:00UTC
التوقعات صالحة من25 الساعة 18 UTC إلى 26 الساعة 18 UTC
ريح 5 عقدة من الجنوب/الجنوب الغربي
الرؤية 10 كم أو أكثر
غيوم متفرقة على ارتفاع 2500 قدم
مؤقت
من 26 الساعة 06 UTC إلى 26 الساعة 12 UTC
ريح 15 عقدة من الجنوب الغربي تتزايد حتى 25 عقدة
الرؤية: 4000 متر
غيوم قليلة على ارتفاع 2000 قدم, مزنة ركامية.
غيوم مفككة على ارتفاع 2500 قدم
عاصفة رعدية, مطر

TAF: VTCP 251700Z 2518/2618 21005KT 9999 SCT025 TEMPO 2606/2612 23015G25KT 4000 TSRA FEW020CB BKN025

أرصاد الطقس والتوقعات من أكثر من 4000 مطار (تقارير الطقس للمطار METAR والتنبؤ بالطقس بالمطارTAF).

المحطات المتاحة هي النقط الصفراء والحمراء على الخريطة.

حرك المؤشر فوق النقطة لمعرفة اسم المحطة.

ثم انقر لمعرفة أرصاد وتوقعات الطقس.

لتغيير الخارطة: اضغط على الأزرار الخضراء مع رمز الصليب الأسود للتكبير. على الزر الأخضر مع شرطة للتصغير، أو على الأسهم الخضراء للخرائط المجاورة.


METAR-TAF: